sensor_id;sensor_type;location;lat;lon;timestamp;temperature;humidity
81947;DHT22;71447;51.910;8.374;2023-07-22T00:02:23;12.70;92.30
81947;DHT22;71447;51.910;8.374;2023-07-22T00:04:49;12.80;92.40
81947;DHT22;71447;51.910;8.374;2023-07-22T00:07:17;12.70;92.20
81947;DHT22;71447;51.910;8.374;2023-07-22T00:09:44;12.80;92.10
81947;DHT22;71447;51.910;8.374;2023-07-22T00:12:12;12.70;92.20
81947;DHT22;71447;51.910;8.374;2023-07-22T00:14:39;12.70;92.20
81947;DHT22;71447;51.910;8.374;2023-07-22T00:17:06;12.70;92.20
81947;DHT22;71447;51.910;8.374;2023-07-22T00:19:33;12.70;92.20
81947;DHT22;71447;51.910;8.374;2023-07-22T00:22:00;12.70;92.10
81947;DHT22;71447;51.910;8.374;2023-07-22T00:24:26;12.70;92.10
81947;DHT22;71447;51.910;8.374;2023-07-22T00:26:54;12.70;92.00
81947;DHT22;71447;51.910;8.374;2023-07-22T00:29:22;12.70;91.90
81947;DHT22;71447;51.910;8.374;2023-07-22T00:31:49;12.80;91.90
81947;DHT22;71447;51.910;8.374;2023-07-22T00:34:15;12.80;91.80
81947;DHT22;71447;51.910;8.374;2023-07-22T00:36:43;12.80;91.70
81947;DHT22;71447;51.910;8.374;2023-07-22T00:39:09;12.70;91.70
81947;DHT22;71447;51.910;8.374;2023-07-22T00:41:39;12.80;91.70
81947;DHT22;71447;51.910;8.374;2023-07-22T00:44:06;12.80;91.70
81947;DHT22;71447;51.910;8.374;2023-07-22T00:46:34;12.80;91.70
81947;DHT22;71447;51.910;8.374;2023-07-22T00:49:00;12.70;91.70
81947;DHT22;71447;51.910;8.374;2023-07-22T00:51:27;12.70;91.70
81947;DHT22;71447;51.910;8.374;2023-07-22T00:53:54;12.70;91.80
81947;DHT22;71447;51.910;8.374;2023-07-22T00:56:21;12.70;91.80
81947;DHT22;71447;51.910;8.374;2023-07-22T00:58:48;12.70;91.80
81947;DHT22;71447;51.910;8.374;2023-07-22T01:01:15;12.70;91.80
81947;DHT22;71447;51.910;8.374;2023-07-22T01:03:43;12.70;91.70
81947;DHT22;71447;51.910;8.374;2023-07-22T01:06:11;12.70;91.70
81947;DHT22;71447;51.910;8.374;2023-07-22T01:08:39;12.70;91.70
81947;DHT22;71447;51.910;8.374;2023-07-22T01:11:06;12.70;91.70
81947;DHT22;71447;51.910;8.374;2023-07-22T01:13:32;12.70;91.60
81947;DHT22;71447;51.910;8.374;2023-07-22T01:15:59;12.70;91.60
81947;DHT22;71447;51.910;8.374;2023-07-22T01:18:26;12.70;91.60
81947;DHT22;71447;51.910;8.374;2023-07-22T01:20:54;12.60;91.50
81947;DHT22;71447;51.910;8.374;2023-07-22T01:23:22;12.60;91.60
81947;DHT22;71447;51.910;8.374;2023-07-22T01:25:49;12.60;91.60
81947;DHT22;71447;51.910;8.374;2023-07-22T01:28:16;12.60;91.60
81947;DHT22;71447;51.910;8.374;2023-07-22T01:30:43;12.60;91.60
81947;DHT22;71447;51.910;8.374;2023-07-22T01:33:10;12.60;91.60
81947;DHT22;71447;51.910;8.374;2023-07-22T01:35:37;12.60;91.50
81947;DHT22;71447;51.910;8.374;2023-07-22T01:38:04;12.60;91.50
81947;DHT22;71447;51.910;8.374;2023-07-22T01:40:34;12.60;91.60
81947;DHT22;71447;51.910;8.374;2023-07-22T01:43:01;12.70;91.60
81947;DHT22;71447;51.910;8.374;2023-07-22T01:45:28;12.70;91.60
81947;DHT22;71447;51.910;8.374;2023-07-22T01:47:54;12.70;91.70
81947;DHT22;71447;51.910;8.374;2023-07-22T01:50:21;12.60;91.70
81947;DHT22;71447;51.910;8.374;2023-07-22T01:52:47;12.60;91.70
81947;DHT22;71447;51.910;8.374;2023-07-22T01:55:14;12.60;91.80
81947;DHT22;71447;51.910;8.374;2023-07-22T01:57:42;12.60;91.90
81947;DHT22;71447;51.910;8.374;2023-07-22T02:00:10;12.60;92.00
81947;DHT22;71447;51.910;8.374;2023-07-22T02:02:37;12.60;91.90
81947;DHT22;71447;51.910;8.374;2023-07-22T02:05:04;12.70;92.00
81947;DHT22;71447;51.910;8.374;2023-07-22T02:07:31;12.70;91.90
81947;DHT22;71447;51.910;8.374;2023-07-22T02:09:58;12.70;91.90
81947;DHT22;71447;51.910;8.374;2023-07-22T02:12:24;12.60;91.90
81947;DHT22;71447;51.910;8.374;2023-07-22T02:14:53;12.70;91.90
81947;DHT22;71447;51.910;8.374;2023-07-22T02:17:19;12.70;91.80
81947;DHT22;71447;51.910;8.374;2023-07-22T02:19:46;12.70;91.80
81947;DHT22;71447;51.910;8.374;2023-07-22T02:22:13;12.70;91.80
81947;DHT22;71447;51.910;8.374;2023-07-22T02:24:40;12.70;91.80
81947;DHT22;71447;51.910;8.374;2023-07-22T02:27:06;12.70;91.70
81947;DHT22;71447;51.910;8.374;2023-07-22T02:29:34;12.70;91.70
81947;DHT22;71447;51.910;8.374;2023-07-22T02:32:02;12.70;91.70
81947;DHT22;71447;51.910;8.374;2023-07-22T02:34:29;12.70;91.70
81947;DHT22;71447;51.910;8.374;2023-07-22T02:36:56;12.80;91.70
81947;DHT22;71447;51.910;8.374;2023-07-22T02:39:22;12.80;91.70
81947;DHT22;71447;51.910;8.374;2023-07-22T02:41:49;12.80;91.70
81947;DHT22;71447;51.910;8.374;2023-07-22T02:44:16;12.80;91.70
81947;DHT22;71447;51.910;8.374;2023-07-22T02:46:42;12.80;91.70
81947;DHT22;71447;51.910;8.374;2023-07-22T02:49:10;12.80;91.70
81947;DHT22;71447;51.910;8.374;2023-07-22T02:51:37;12.80;91.70
81947;DHT22;71447;51.910;8.374;2023-07-22T02:54:04;12.90;91.70
81947;DHT22;71447;51.910;8.374;2023-07-22T02:56:30;12.90;91.80
81947;DHT22;71447;51.910;8.374;2023-07-22T02:58:57;12.80;91.70
81947;DHT22;71447;51.910;8.374;2023-07-22T03:01:24;12.80;91.70
81947;DHT22;71447;51.910;8.374;2023-07-22T03:03:51;12.80;91.80
81947;DHT22;71447;51.910;8.374;2023-07-22T03:06:19;12.80;91.90
81947;DHT22;71447;51.910;8.374;2023-07-22T03:08:45;12.80;91.90
81947;DHT22;71447;51.910;8.374;2023-07-22T03:11:13;12.80;91.90
81947;DHT22;71447;51.910;8.374;2023-07-22T03:13:40;12.80;91.90
81947;DHT22;71447;51.910;8.374;2023-07-22T03:16:07;12.70;92.00
81947;DHT22;71447;51.910;8.374;2023-07-22T03:18:34;12.70;92.00
81947;DHT22;71447;51.910;8.374;2023-07-22T03:21:01;12.80;92.10
81947;DHT22;71447;51.910;8.374;2023-07-22T03:23:29;12.70;92.10
81947;DHT22;71447;51.910;8.374;2023-07-22T03:25:56;12.70;92.10
81947;DHT22;71447;51.910;8.374;2023-07-22T03:28:22;12.70;92.10
81947;DHT22;71447;51.910;8.374;2023-07-22T03:30:51;12.80;92.10
81947;DHT22;71447;51.910;8.374;2023-07-22T03:33:18;12.80;92.00
81947;DHT22;71447;51.910;8.374;2023-07-22T03:35:45;12.80;92.00
81947;DHT22;71447;51.910;8.374;2023-07-22T03:38:12;12.80;91.90
81947;DHT22;71447;51.910;8.374;2023-07-22T03:40:40;12.80;91.90
81947;DHT22;71447;51.910;8.374;2023-07-22T03:43:07;12.90;91.90
81947;DHT22;71447;51.910;8.374;2023-07-22T03:45:34;12.90;91.80
81947;DHT22;71447;51.910;8.374;2023-07-22T03:48:00;12.90;91.70
81947;DHT22;71447;51.910;8.374;2023-07-22T03:50:28;12.90;91.60
81947;DHT22;71447;51.910;8.374;2023-07-22T03:52:54;12.90;91.70
81947;DHT22;71447;51.910;8.374;2023-07-22T03:55:21;12.90;91.60
81947;DHT22;71447;51.910;8.374;2023-07-22T03:57:49;12.90;91.60
81947;DHT22;71447;51.910;8.374;2023-07-22T04:00:16;12.90;91.50
81947;DHT22;71447;51.910;8.374;2023-07-22T04:02:42;12.90;91.50
81947;DHT22;71447;51.910;8.374;2023-07-22T04:05:09;12.90;91.60
81947;DHT22;71447;51.910;8.374;2023-07-22T04:07:36;13.00;91.50
81947;DHT22;71447;51.910;8.374;2023-07-22T04:10:03;13.00;91.40
81947;DHT22;71447;51.910;8.374;2023-07-22T04:12:30;13.00;91.30
81947;DHT22;71447;51.910;8.374;2023-07-22T04:14:58;13.00;91.20
81947;DHT22;71447;51.910;8.374;2023-07-22T04:17:25;13.00;91.10
81947;DHT22;71447;51.910;8.374;2023-07-22T04:19:51;13.00;91.10
81947;DHT22;71447;51.910;8.374;2023-07-22T04:22:20;13.10;91.10
81947;DHT22;71447;51.910;8.374;2023-07-22T04:24:46;13.10;91.10
81947;DHT22;71447;51.910;8.374;2023-07-22T04:27:14;13.10;91.00
81947;DHT22;71447;51.910;8.374;2023-07-22T04:29:41;13.10;91.00
81947;DHT22;71447;51.910;8.374;2023-07-22T04:32:09;13.10;90.90
81947;DHT22;71447;51.910;8.374;2023-07-22T04:34:36;13.10;90.80
81947;DHT22;71447;51.910;8.374;2023-07-22T04:37:03;13.20;90.80
81947;DHT22;71447;51.910;8.374;2023-07-22T04:39:30;13.10;90.70
81947;DHT22;71447;51.910;8.374;2023-07-22T04:41:57;13.10;90.70
81947;DHT22;71447;51.910;8.374;2023-07-22T04:44:23;13.10;90.80
81947;DHT22;71447;51.910;8.374;2023-07-22T04:46:50;13.10;90.70
81947;DHT22;71447;51.910;8.374;2023-07-22T04:49:18;13.10;90.60
81947;DHT22;71447;51.910;8.374;2023-07-22T04:51:45;13.10;90.60
81947;DHT22;71447;51.910;8.374;2023-07-22T04:54:12;13.10;90.70
81947;DHT22;71447;51.910;8.374;2023-07-22T04:56:38;13.10;90.70
81947;DHT22;71447;51.910;8.374;2023-07-22T04:59:05;13.20;90.70
81947;DHT22;71447;51.910;8.374;2023-07-22T05:01:32;13.20;90.60
81947;DHT22;71447;51.910;8.374;2023-07-22T05:03:59;13.20;90.50
81947;DHT22;71447;51.910;8.374;2023-07-22T05:06:28;13.30;90.50
81947;DHT22;71447;51.910;8.374;2023-07-22T05:08:54;13.30;90.30
81947;DHT22;71447;51.910;8.374;2023-07-22T05:11:21;13.30;90.20
81947;DHT22;71447;51.910;8.374;2023-07-22T05:13:48;13.40;90.10
81947;DHT22;71447;51.910;8.374;2023-07-22T05:16:15;13.40;90.00
81947;DHT22;71447;51.910;8.374;2023-07-22T05:18:42;13.40;90.00
81947;DHT22;71447;51.910;8.374;2023-07-22T05:21:08;13.50;90.00
81947;DHT22;71447;51.910;8.374;2023-07-22T05:23:36;13.40;90.00
81947;DHT22;71447;51.910;8.374;2023-07-22T05:26:03;13.50;90.10
81947;DHT22;71447;51.910;8.374;2023-07-22T05:28:30;13.50;90.10
81947;DHT22;71447;51.910;8.374;2023-07-22T05:30:56;13.60;90.10
81947;DHT22;71447;51.910;8.374;2023-07-22T05:33:23;13.60;90.10
81947;DHT22;71447;51.910;8.374;2023-07-22T05:35:50;13.60;90.10
81947;DHT22;71447;51.910;8.374;2023-07-22T05:38:17;13.70;90.20
81947;DHT22;71447;51.910;8.374;2023-07-22T05:40:45;13.80;90.20
81947;DHT22;71447;51.910;8.374;2023-07-22T05:43:11;13.80;90.20
81947;DHT22;71447;51.910;8.374;2023-07-22T05:45:38;13.80;90.20
81947;DHT22;71447;51.910;8.374;2023-07-22T05:48:05;13.90;90.30
81947;DHT22;71447;51.910;8.374;2023-07-22T05:50:32;13.90;90.30
81947;DHT22;71447;51.910;8.374;2023-07-22T05:52:58;13.90;90.10
81947;DHT22;71447;51.910;8.374;2023-07-22T05:55:25;13.90;90.00
81947;DHT22;71447;51.910;8.374;2023-07-22T05:57:53;13.90;89.80
81947;DHT22;71447;51.910;8.374;2023-07-22T06:00:20;13.90;89.90
81947;DHT22;71447;51.910;8.374;2023-07-22T06:02:47;13.90;90.00
81947;DHT22;71447;51.910;8.374;2023-07-22T06:05:14;13.90;90.00
81947;DHT22;71447;51.910;8.374;2023-07-22T06:07:40;13.90;90.20
81947;DHT22;71447;51.910;8.374;2023-07-22T06:10:07;14.00;90.10
81947;DHT22;71447;51.910;8.374;2023-07-22T06:12:34;14.10;90.00
81947;DHT22;71447;51.910;8.374;2023-07-22T06:15:02;14.10;89.70
81947;DHT22;71447;51.910;8.374;2023-07-22T06:17:29;14.10;89.30
81947;DHT22;71447;51.910;8.374;2023-07-22T06:19:56;14.20;89.50
81947;DHT22;71447;51.910;8.374;2023-07-22T06:22:22;14.20;88.90
81947;DHT22;71447;51.910;8.374;2023-07-22T06:24:49;14.20;88.60
81947;DHT22;71447;51.910;8.374;2023-07-22T06:27:16;14.30;88.50
81947;DHT22;71447;51.910;8.374;2023-07-22T06:29:43;14.40;88.40
81947;DHT22;71447;51.910;8.374;2023-07-22T06:32:11;14.40;88.30
81947;DHT22;71447;51.910;8.374;2023-07-22T06:34:37;14.40;88.20
81947;DHT22;71447;51.910;8.374;2023-07-22T06:37:04;14.40;88.00
81947;DHT22;71447;51.910;8.374;2023-07-22T06:39:31;14.50;87.90
81947;DHT22;71447;51.910;8.374;2023-07-22T06:41:58;14.50;87.80
81947;DHT22;71447;51.910;8.374;2023-07-22T06:44:24;14.60;87.70
81947;DHT22;71447;51.910;8.374;2023-07-22T06:46:51;14.60;87.40
81947;DHT22;71447;51.910;8.374;2023-07-22T06:49:19;14.60;87.00
81947;DHT22;71447;51.910;8.374;2023-07-22T06:51:46;14.70;87.30
81947;DHT22;71447;51.910;8.374;2023-07-22T06:54:12;14.70;86.80
81947;DHT22;71447;51.910;8.374;2023-07-22T06:56:39;14.70;87.00
81947;DHT22;71447;51.910;8.374;2023-07-22T06:59:06;14.70;87.40
81947;DHT22;71447;51.910;8.374;2023-07-22T07:01:33;14.80;87.80
81947;DHT22;71447;51.910;8.374;2023-07-22T07:03:59;14.90;86.60
81947;DHT22;71447;51.910;8.374;2023-07-22T07:06:28;14.90;86.60
81947;DHT22;71447;51.910;8.374;2023-07-22T07:08:54;14.90;85.70
81947;DHT22;71447;51.910;8.374;2023-07-22T07:11:21;15.00;85.20
81947;DHT22;71447;51.910;8.374;2023-07-22T07:13:48;15.00;85.20
81947;DHT22;71447;51.910;8.374;2023-07-22T07:16:20;15.10;85.30
81947;DHT22;71447;51.910;8.374;2023-07-22T07:18:48;15.20;84.20
81947;DHT22;71447;51.910;8.374;2023-07-22T07:21:14;15.20;83.30
81947;DHT22;71447;51.910;8.374;2023-07-22T07:23:43;15.30;83.00
81947;DHT22;71447;51.910;8.374;2023-07-22T07:26:09;15.30;83.40
81947;DHT22;71447;51.910;8.374;2023-07-22T07:28:36;15.40;83.50
81947;DHT22;71447;51.910;8.374;2023-07-22T07:31:03;15.50;82.90
81947;DHT22;71447;51.910;8.374;2023-07-22T07:33:30;15.60;82.90
81947;DHT22;71447;51.910;8.374;2023-07-22T07:35:57;15.70;82.70
81947;DHT22;71447;51.910;8.374;2023-07-22T07:38:25;15.70;82.70
81947;DHT22;71447;51.910;8.374;2023-07-22T07:40:56;15.80;82.80
81947;DHT22;71447;51.910;8.374;2023-07-22T07:43:23;15.90;81.60
81947;DHT22;71447;51.910;8.374;2023-07-22T07:45:50;16.00;80.60
81947;DHT22;71447;51.910;8.374;2023-07-22T07:48:16;16.00;79.60
81947;DHT22;71447;51.910;8.374;2023-07-22T07:50:43;16.00;80.50
81947;DHT22;71447;51.910;8.374;2023-07-22T07:53:10;16.00;81.40
81947;DHT22;71447;51.910;8.374;2023-07-22T07:55:36;16.00;81.70
81947;DHT22;71447;51.910;8.374;2023-07-22T07:58:09;16.00;82.20
81947;DHT22;71447;51.910;8.374;2023-07-22T08:00:35;16.00;81.70
81947;DHT22;71447;51.910;8.374;2023-07-22T08:03:02;16.00;82.20
81947;DHT22;71447;51.910;8.374;2023-07-22T08:05:30;16.10;82.00
81947;DHT22;71447;51.910;8.374;2023-07-22T08:07:57;16.10;81.70
81947;DHT22;71447;51.910;8.374;2023-07-22T08:10:24;16.10;81.40
81947;DHT22;71447;51.910;8.374;2023-07-22T08:12:50;16.20;81.60
81947;DHT22;71447;51.910;8.374;2023-07-22T08:15:19;16.20;80.80
81947;DHT22;71447;51.910;8.374;2023-07-22T08:17:46;16.20;80.60
81947;DHT22;71447;51.910;8.374;2023-07-22T08:20:12;16.30;80.30
81947;DHT22;71447;51.910;8.374;2023-07-22T08:22:39;16.40;80.40
81947;DHT22;71447;51.910;8.374;2023-07-22T08:25:06;16.50;80.50
81947;DHT22;71447;51.910;8.374;2023-07-22T08:27:33;16.50;79.10
81947;DHT22;71447;51.910;8.374;2023-07-22T08:29:59;16.60;77.70
81947;DHT22;71447;51.910;8.374;2023-07-22T08:32:27;16.70;78.10
81947;DHT22;71447;51.910;8.374;2023-07-22T08:34:54;16.70;78.40
81947;DHT22;71447;51.910;8.374;2023-07-22T08:37:21;16.80;78.00
81947;DHT22;71447;51.910;8.374;2023-07-22T08:39:48;16.90;77.40
81947;DHT22;71447;51.910;8.374;2023-07-22T08:42:14;17.00;76.90
81947;DHT22;71447;51.910;8.374;2023-07-22T08:44:44;17.00;75.80
81947;DHT22;71447;51.910;8.374;2023-07-22T08:47:14;17.10;76.10
81947;DHT22;71447;51.910;8.374;2023-07-22T08:49:43;17.20;76.70
81947;DHT22;71447;51.910;8.374;2023-07-22T08:52:12;17.30;76.70
81947;DHT22;71447;51.910;8.374;2023-07-22T08:54:40;17.40;75.30
81947;DHT22;71447;51.910;8.374;2023-07-22T08:57:07;17.40;75.80
81947;DHT22;71447;51.910;8.374;2023-07-22T08:59:34;17.50;75.30
81947;DHT22;71447;51.910;8.374;2023-07-22T09:02:01;17.60;74.80
81947;DHT22;71447;51.910;8.374;2023-07-22T09:04:28;17.70;73.90
81947;DHT22;71447;51.910;8.374;2023-07-22T09:06:56;17.80;72.10
81947;DHT22;71447;51.910;8.374;2023-07-22T09:09:24;17.80;70.50
81947;DHT22;71447;51.910;8.374;2023-07-22T09:11:51;17.80;71.50
81947;DHT22;71447;51.910;8.374;2023-07-22T09:14:18;17.80;71.50
81947;DHT22;71447;51.910;8.374;2023-07-22T09:16:45;18.00;69.80
81947;DHT22;71447;51.910;8.374;2023-07-22T09:19:12;18.10;69.40
81947;DHT22;71447;51.910;8.374;2023-07-22T09:21:39;18.20;68.40
81947;DHT22;71447;51.910;8.374;2023-07-22T09:24:20;18.30;67.10
81947;DHT22;71447;51.910;8.374;2023-07-22T09:26:47;18.40;68.00
81947;DHT22;71447;51.910;8.374;2023-07-22T09:29:14;18.50;66.60
81947;DHT22;71447;51.910;8.374;2023-07-22T09:31:48;18.60;65.70
81947;DHT22;71447;51.910;8.374;2023-07-22T09:34:15;18.70;66.70
81947;DHT22;71447;51.910;8.374;2023-07-22T09:36:49;18.80;67.60
81947;DHT22;71447;51.910;8.374;2023-07-22T09:39:16;18.80;66.50
81947;DHT22;71447;51.910;8.374;2023-07-22T09:41:44;19.00;67.10
81947;DHT22;71447;51.910;8.374;2023-07-22T09:44:11;19.10;65.10
81947;DHT22;71447;51.910;8.374;2023-07-22T09:46:38;19.30;64.70
81947;DHT22;71447;51.910;8.374;2023-07-22T09:49:05;19.40;64.20
81947;DHT22;71447;51.910;8.374;2023-07-22T09:51:35;19.60;62.40
81947;DHT22;71447;51.910;8.374;2023-07-22T09:54:03;19.70;62.80
81947;DHT22;71447;51.910;8.374;2023-07-22T09:56:30;19.80;61.30
81947;DHT22;71447;51.910;8.374;2023-07-22T09:58:58;19.80;60.80
81947;DHT22;71447;51.910;8.374;2023-07-22T10:01:25;19.90;62.00
81947;DHT22;71447;51.910;8.374;2023-07-22T10:03:53;20.00;58.90
81947;DHT22;71447;51.910;8.374;2023-07-22T10:06:21;20.00;57.60
81947;DHT22;71447;51.910;8.374;2023-07-22T10:08:48;19.90;57.80
81947;DHT22;71447;51.910;8.374;2023-07-22T10:11:15;19.90;59.20
81947;DHT22;71447;51.910;8.374;2023-07-22T10:13:42;19.90;57.90
81947;DHT22;71447;51.910;8.374;2023-07-22T10:16:10;19.90;57.90
81947;DHT22;71447;51.910;8.374;2023-07-22T10:18:37;19.90;57.60
81947;DHT22;71447;51.910;8.374;2023-07-22T10:21:07;19.90;57.30
81947;DHT22;71447;51.910;8.374;2023-07-22T10:23:33;20.00;56.90
81947;DHT22;71447;51.910;8.374;2023-07-22T10:26:01;20.20;56.10
81947;DHT22;71447;51.910;8.374;2023-07-22T10:28:28;20.30;54.50
81947;DHT22;71447;51.910;8.374;2023-07-22T10:30:55;20.40;55.70
81947;DHT22;71447;51.910;8.374;2023-07-22T10:33:24;20.50;54.80
81947;DHT22;71447;51.910;8.374;2023-07-22T10:36:04;20.50;54.60
81947;DHT22;71447;51.910;8.374;2023-07-22T10:38:31;20.50;54.60
81947;DHT22;71447;51.910;8.374;2023-07-22T10:40:58;20.50;55.60
81947;DHT22;71447;51.910;8.374;2023-07-22T10:43:25;20.60;54.70
81947;DHT22;71447;51.910;8.374;2023-07-22T10:45:53;20.60;53.70
81947;DHT22;71447;51.910;8.374;2023-07-22T10:48:22;20.80;54.40
81947;DHT22;71447;51.910;8.374;2023-07-22T10:50:51;20.90;53.60
81947;DHT22;71447;51.910;8.374;2023-07-22T10:53:27;21.10;52.20
81947;DHT22;71447;51.910;8.374;2023-07-22T10:56:04;21.20;52.10
81947;DHT22;71447;51.910;8.374;2023-07-22T10:58:31;21.30;52.00
81947;DHT22;71447;51.910;8.374;2023-07-22T11:06:23;21.30;50.20
81947;DHT22;71447;51.910;8.374;2023-07-22T11:08:49;21.20;50.30
81947;DHT22;71447;51.910;8.374;2023-07-22T11:11:18;21.10;51.20
81947;DHT22;71447;51.910;8.374;2023-07-22T11:13:45;21.10;51.70
81947;DHT22;71447;51.910;8.374;2023-07-22T11:16:12;21.00;51.30
81947;DHT22;71447;51.910;8.374;2023-07-22T11:18:39;21.00;51.50
81947;DHT22;71447;51.910;8.374;2023-07-22T11:21:09;21.00;51.50
81947;DHT22;71447;51.910;8.374;2023-07-22T11:23:37;21.10;52.40
81947;DHT22;71447;51.910;8.374;2023-07-22T11:26:04;21.20;50.70
81947;DHT22;71447;51.910;8.374;2023-07-22T11:28:31;21.20;50.30
81947;DHT22;71447;51.910;8.374;2023-07-22T11:30:58;21.30;50.30
81947;DHT22;71447;51.910;8.374;2023-07-22T11:33:26;21.30;50.00
81947;DHT22;71447;51.910;8.374;2023-07-22T11:36:03;21.40;51.20
81947;DHT22;71447;51.910;8.374;2023-07-22T11:38:30;21.40;50.10
81947;DHT22;71447;51.910;8.374;2023-07-22T11:40:58;21.40;49.70
81947;DHT22;71447;51.910;8.374;2023-07-22T11:43:24;21.40;49.20
81947;DHT22;71447;51.910;8.374;2023-07-22T11:45:51;21.40;48.20
81947;DHT22;71447;51.910;8.374;2023-07-22T11:48:18;21.40;49.20
81947;DHT22;71447;51.910;8.374;2023-07-22T11:50:45;21.50;50.00
81947;DHT22;71447;51.910;8.374;2023-07-22T11:53:11;21.60;48.50
81947;DHT22;71447;51.910;8.374;2023-07-22T11:55:38;21.80;46.90
81947;DHT22;71447;51.910;8.374;2023-07-22T11:58:06;22.00;47.10
81947;DHT22;71447;51.910;8.374;2023-07-22T12:00:34;22.10;46.80
81947;DHT22;71447;51.910;8.374;2023-07-22T12:03:04;22.30;44.90
81947;DHT22;71447;51.910;8.374;2023-07-22T12:05:31;22.30;45.50
81947;DHT22;71447;51.910;8.374;2023-07-22T12:08:02;22.40;46.50
81947;DHT22;71447;51.910;8.374;2023-07-22T12:10:29;22.60;44.90
81947;DHT22;71447;51.910;8.374;2023-07-22T12:12:56;22.80;43.20
81947;DHT22;71447;51.910;8.374;2023-07-22T12:15:28;22.90;60.80
81947;DHT22;71447;51.910;8.374;2023-07-22T12:17:56;23.10;43.80
81947;DHT22;71447;51.910;8.374;2023-07-22T12:20:23;23.30;43.20
81947;DHT22;71447;51.910;8.374;2023-07-22T12:22:50;23.30;42.20
81947;DHT22;71447;51.910;8.374;2023-07-22T12:25:16;23.30;43.30
81947;DHT22;71447;51.910;8.374;2023-07-22T12:27:43;23.30;42.90
81947;DHT22;71447;51.910;8.374;2023-07-22T12:30:10;23.40;43.50
81947;DHT22;71447;51.910;8.374;2023-07-22T12:32:38;23.50;43.60
81947;DHT22;71447;51.910;8.374;2023-07-22T12:35:06;23.60;42.70
81947;DHT22;71447;51.910;8.374;2023-07-22T12:37:33;23.80;43.00
81947;DHT22;71447;51.910;8.374;2023-07-22T12:40:00;24.00;41.70
81947;DHT22;71447;51.910;8.374;2023-07-22T12:42:27;24.00;41.80
81947;DHT22;71447;51.910;8.374;2023-07-22T12:44:53;24.10;42.20
81947;DHT22;71447;51.910;8.374;2023-07-22T12:47:20;24.30;42.60
81947;DHT22;71447;51.910;8.374;2023-07-22T12:49:48;24.40;41.40
81947;DHT22;71447;51.910;8.374;2023-07-22T12:52:15;24.50;40.00
81947;DHT22;71447;51.910;8.374;2023-07-22T12:54:42;24.50;39.30
81947;DHT22;71447;51.910;8.374;2023-07-22T12:57:09;24.70;38.20
81947;DHT22;71447;51.910;8.374;2023-07-22T12:59:35;24.90;37.70
81947;DHT22;71447;51.910;8.374;2023-07-22T13:02:02;25.10;37.90
81947;DHT22;71447;51.910;8.374;2023-07-22T13:04:29;25.40;37.60
81947;DHT22;71447;51.910;8.374;2023-07-22T13:06:57;25.60;36.60
81947;DHT22;71447;51.910;8.374;2023-07-22T13:09:23;25.70;36.80
81947;DHT22;71447;51.910;8.374;2023-07-22T13:11:50;25.60;37.10
81947;DHT22;71447;51.910;8.374;2023-07-22T13:14:17;25.60;38.50
81947;DHT22;71447;51.910;8.374;2023-07-22T13:16:44;25.50;38.70
81947;DHT22;71447;51.910;8.374;2023-07-22T13:19:10;25.70;37.80
81947;DHT22;71447;51.910;8.374;2023-07-22T13:21:37;25.90;37.60
81947;DHT22;71447;51.910;8.374;2023-07-22T13:24:05;26.00;38.30
81947;DHT22;71447;51.910;8.374;2023-07-22T13:26:32;25.80;36.30
81947;DHT22;71447;51.910;8.374;2023-07-22T13:28:59;25.60;37.70
81947;DHT22;71447;51.910;8.374;2023-07-22T13:31:25;25.50;37.00
81947;DHT22;71447;51.910;8.374;2023-07-22T13:33:52;25.10;36.50
81947;DHT22;71447;51.910;8.374;2023-07-22T13:36:19;24.80;38.00
81947;DHT22;71447;51.910;8.374;2023-07-22T13:38:45;24.70;38.90
81947;DHT22;71447;51.910;8.374;2023-07-22T13:41:13;24.50;38.20
81947;DHT22;71447;51.910;8.374;2023-07-22T13:43:40;24.50;38.10
81947;DHT22;71447;51.910;8.374;2023-07-22T13:46:07;24.60;38.50
81947;DHT22;71447;51.910;8.374;2023-07-22T13:48:34;24.90;38.10
81947;DHT22;71447;51.910;8.374;2023-07-22T13:51:00;25.10;37.50
81947;DHT22;71447;51.910;8.374;2023-07-22T13:53:27;25.40;36.90
81947;DHT22;71447;51.910;8.374;2023-07-22T13:55:54;25.40;36.80
81947;DHT22;71447;51.910;8.374;2023-07-22T13:58:22;25.60;37.40
81947;DHT22;71447;51.910;8.374;2023-07-22T14:00:48;25.60;36.00
81947;DHT22;71447;51.910;8.374;2023-07-22T14:03:15;25.60;36.40
81947;DHT22;71447;51.910;8.374;2023-07-22T14:05:42;25.60;35.40
81947;DHT22;71447;51.910;8.374;2023-07-22T14:08:08;25.50;35.80
81947;DHT22;71447;51.910;8.374;2023-07-22T14:10:35;25.30;35.60
81947;DHT22;71447;51.910;8.374;2023-07-22T14:13:02;24.90;35.90
81947;DHT22;71447;51.910;8.374;2023-07-22T14:15:30;24.70;36.90
81947;DHT22;71447;51.910;8.374;2023-07-22T14:17:56;24.60;37.30
81947;DHT22;71447;51.910;8.374;2023-07-22T14:20:23;24.70;36.10
